createdAt,value
2023-03-08T00:01:55.038Z,96561.44
2023-03-08T00:04:57.752Z,96554.22
2023-03-08T00:08:00.494Z,96567.03
2023-03-08T00:11:10.981Z,96562.91
2023-03-08T00:14:13.645Z,96578.66
2023-03-08T00:17:17.142Z,96579.22
2023-03-08T00:20:19.779Z,96581.38
2023-03-08T00:23:22.372Z,96575.53
2023-03-08T00:26:24.950Z,96564.91
2023-03-08T00:29:27.520Z,96571.53
2023-03-08T00:32:33.106Z,96561.88
2023-03-08T00:35:35.729Z,96562.28
2023-03-08T00:38:38.296Z,96553.56
2023-03-08T00:41:40.968Z,96553.56
2023-03-08T00:44:43.504Z,96552.75
2023-03-08T00:47:47.454Z,96545.34
2023-03-08T00:50:50.092Z,96548.22
2023-03-08T00:53:52.732Z,96547.00
2023-03-08T00:56:55.537Z,96554.06
2023-03-08T01:00:01.335Z,96544.81
2023-03-08T01:03:04.627Z,96534.44
2023-03-08T01:06:10.240Z,96546.31
2023-03-08T01:09:13.003Z,96548.06
2023-03-08T01:12:15.533Z,96545.88
2023-03-08T01:15:18.179Z,96553.00
2023-03-08T01:18:20.783Z,96527.19
2023-03-08T01:21:24.045Z,96542.09
2023-03-08T01:24:26.775Z,96525.00
2023-03-08T01:27:32.004Z,96522.69
2023-03-08T01:30:35.133Z,96519.84
2023-03-08T01:33:40.095Z,96511.28
2023-03-08T01:36:42.675Z,96525.88
2023-03-08T01:39:45.366Z,96526.00
2023-03-08T01:42:47.880Z,96541.69
2023-03-08T01:46:06.543Z,96541.56
2023-03-08T01:49:30.674Z,96566.94
2023-03-08T01:52:40.192Z,96565.44
2023-03-08T01:55:43.052Z,96560.66
2023-03-08T01:58:47.521Z,96565.84
2023-03-08T02:01:53.835Z,96552.06
2023-03-08T02:04:57.989Z,96558.59
2023-03-08T02:08:02.241Z,96547.84
2023-03-08T02:11:10.267Z,96553.56
2023-03-08T02:14:12.819Z,96541.97
2023-03-08T02:17:19.423Z,96546.47
2023-03-08T02:20:32.531Z,96557.94
2023-03-08T02:23:35.136Z,96557.13
2023-03-08T02:26:38.218Z,96555.63
2023-03-08T02:29:41.405Z,96554.00
2023-03-08T02:32:44.097Z,96570.22
2023-03-08T02:35:47.310Z,96565.84
2023-03-08T02:38:49.959Z,96574.72
2023-03-08T02:41:52.487Z,96574.03
2023-03-08T02:44:54.955Z,96581.09
2023-03-08T02:47:57.731Z,96586.56
2023-03-08T02:51:00.434Z,96574.56
2023-03-08T02:54:03.471Z,96580.81
2023-03-08T02:57:06.392Z,96575.09
2023-03-08T03:00:11.698Z,96584.53
2023-03-08T03:03:14.230Z,96590.66
2023-03-08T03:06:18.811Z,96595.53
2023-03-08T03:09:24.177Z,96590.50
2023-03-08T03:12:27.088Z,96590.38
2023-03-08T03:15:29.652Z,96589.81
2023-03-08T03:18:34.569Z,96596.50
2023-03-08T03:21:39.202Z,96598.53
2023-03-08T03:24:41.778Z,96590.91
2023-03-08T03:27:44.527Z,96597.72
2023-03-08T03:30:48.339Z,96598.75
2023-03-08T03:33:52.517Z,96598.50
2023-03-08T03:36:58.070Z,96600.19
2023-03-08T03:40:01.118Z,96601.44
2023-03-08T03:43:05.222Z,96613.97
2023-03-08T03:46:10.566Z,96605.44
2023-03-08T03:49:13.857Z,96612.94
2023-03-08T03:52:19.214Z,96613.72
2023-03-08T03:55:30.652Z,96617.09
2023-03-08T03:58:34.206Z,96626.13
2023-03-08T04:01:37.229Z,96636.78
2023-03-08T04:04:51.340Z,96640.47
2023-03-08T04:07:57.829Z,96632.72
2023-03-08T04:11:05.573Z,96638.81
2023-03-08T04:14:09.234Z,96638.19
2023-03-08T04:17:11.812Z,96646.91
2023-03-08T04:20:19.516Z,96649.50
2023-03-08T04:23:29.340Z,96652.91
2023-03-08T04:26:32.397Z,96658.13
2023-03-08T04:29:34.991Z,96651.31
2023-03-08T04:32:38.146Z,96662.75
2023-03-08T04:35:41.671Z,96660.03
2023-03-08T04:38:46.079Z,96650.75
2023-03-08T04:41:48.784Z,96647.78
2023-03-08T04:45:11.729Z,96658.66
2023-03-08T04:48:15.624Z,96658.00
2023-03-08T04:51:19.605Z,96666.06
2023-03-08T04:54:23.180Z,96669.75
2023-03-08T04:57:32.809Z,96667.56
2023-03-08T05:00:36.713Z,96668.47
2023-03-08T05:03:40.343Z,96667.38
2023-03-08T05:06:43.627Z,96668.53
2023-03-08T05:09:51.142Z,96676.28
2023-03-08T05:12:53.761Z,96672.91
2023-03-08T05:15:57.709Z,96674.91
2023-03-08T05:19:00.734Z,96676.63
2023-03-08T05:22:09.090Z,96689.94
2023-03-08T05:25:17.970Z,96695.38
2023-03-08T05:28:21.626Z,96698.44
2023-03-08T05:31:24.417Z,96699.66
2023-03-08T05:34:29.974Z,96711.97
2023-03-08T05:37:33.878Z,96713.84
2023-03-08T05:40:39.230Z,96715.25
2023-03-08T05:43:43.124Z,96712.72
2023-03-08T05:46:50.354Z,96717.44
2023-03-08T05:49:53.210Z,96723.75
2023-03-08T05:52:57.817Z,96724.50
2023-03-08T05:56:10.102Z,96728.41
2023-03-08T05:59:18.357Z,96736.06
2023-03-08T06:02:22.219Z,96739.59
2023-03-08T06:05:28.676Z,96748.09
2023-03-08T06:08:33.226Z,96749.63
2023-03-08T06:11:37.734Z,96745.13
2023-03-08T06:14:41.453Z,96753.34
2023-03-08T06:17:44.861Z,96747.66
2023-03-08T06:20:58.187Z,96751.31
2023-03-08T06:24:01.171Z,96755.31
2023-03-08T06:27:04.760Z,96769.13
2023-03-08T06:30:08.054Z,96770.06
2023-03-08T06:33:11.939Z,96769.38
2023-03-08T06:36:17.712Z,96766.53
2023-03-08T06:39:21.594Z,96775.25
2023-03-08T06:42:39.806Z,96771.44
2023-03-08T06:45:43.624Z,96783.09
2023-03-08T06:48:47.590Z,96772.50
2023-03-08T06:51:51.572Z,96785.44
2023-03-08T06:54:54.558Z,96786.66
2023-03-08T06:57:58.547Z,96780.78
2023-03-08T07:01:01.390Z,96783.75
2023-03-08T07:04:04.684Z,96801.06
2023-03-08T07:07:08.109Z,96796.31
2023-03-08T07:10:14.924Z,96804.38
2023-03-08T07:13:17.759Z,96793.50
2023-03-08T07:16:20.515Z,96798.44
2023-03-08T07:19:23.062Z,96798.00
2023-03-08T07:22:25.618Z,96823.03
2023-03-08T07:25:28.794Z,96832.72
2023-03-08T07:28:32.275Z,96826.28
2023-03-08T07:31:36.546Z,96827.81
2023-03-08T07:34:39.250Z,96820.81
2023-03-08T07:37:44.981Z,96824.13
2023-03-08T07:40:55.499Z,96826.72
2023-03-08T07:43:58.363Z,96817.16
2023-03-08T07:47:02.554Z,96813.97
2023-03-08T07:50:08.165Z,96818.59
2023-03-08T07:53:11.145Z,96821.81
2023-03-08T07:56:13.811Z,96825.28
2023-03-08T07:59:16.443Z,96820.84
2023-03-08T08:02:19.069Z,96828.72
2023-03-08T08:05:22.360Z,96817.69
2023-03-08T08:08:25.159Z,96815.44
2023-03-08T08:11:27.783Z,96809.66
2023-03-08T08:14:30.469Z,96804.63
2023-03-08T08:17:33.016Z,96807.94
2023-03-08T08:20:35.748Z,96812.19
2023-03-08T08:23:39.908Z,96800.88
2023-03-08T08:26:42.682Z,96800.41
2023-03-08T08:29:46.419Z,96793.41
2023-03-08T08:32:49.288Z,96796.13
2023-03-08T08:35:52.011Z,96795.56
2023-03-08T08:38:54.713Z,96795.88
2023-03-08T08:41:57.323Z,96806.59
2023-03-08T08:44:59.980Z,96805.97
2023-03-08T08:48:02.630Z,96805.53
2023-03-08T08:51:06.757Z,96807.38
2023-03-08T08:54:09.630Z,96792.94
2023-03-08T08:57:12.562Z,96793.13
2023-03-08T09:00:16.084Z,96786.78
2023-03-08T09:03:18.696Z,96785.66
2023-03-08T09:06:22.686Z,96777.88
2023-03-08T09:09:27.076Z,96756.78
2023-03-08T09:12:30.252Z,96771.00
2023-03-08T09:15:32.986Z,96769.19
2023-03-08T09:18:35.608Z,96765.41
2023-03-08T09:21:38.565Z,96771.50
2023-03-08T09:24:41.222Z,96770.19
2023-03-08T09:27:43.730Z,96766.59
2023-03-08T09:30:46.312Z,96764.91
2023-03-08T09:33:52.302Z,96768.28
2023-03-08T09:36:55.072Z,96752.31
2023-03-08T09:39:58.398Z,96748.44
2023-03-08T09:43:04.993Z,96742.84
2023-03-08T09:46:13.356Z,96734.22
2023-03-08T09:49:36.757Z,96731.44
2023-03-08T09:53:16.044Z,96738.72
2023-03-08T09:56:36.862Z,96717.22
2023-03-08T09:59:49.164Z,96717.97
2023-03-08T10:03:19.645Z,96719.63
2023-03-08T10:06:24.827Z,96719.69
2023-03-08T10:09:42.058Z,96721.72
2023-03-08T10:13:20.129Z,96725.88
2023-03-08T10:16:34.563Z,96715.81
2023-03-08T10:19:46.779Z,96719.00
2023-03-08T10:22:57.000Z,96718.28
2023-03-08T10:26:00.691Z,96714.72
2023-03-08T10:29:03.746Z,96722.16
2023-03-08T10:32:07.482Z,96723.81
2023-03-08T10:35:10.090Z,96726.94
2023-03-08T10:38:17.188Z,96728.22
2023-03-08T10:41:19.758Z,96732.13
2023-03-08T10:44:37.152Z,96722.03
2023-03-08T10:47:39.679Z,96717.94
2023-03-08T10:50:42.284Z,96702.16
2023-03-08T10:54:03.438Z,96712.06
2023-03-08T10:57:06.122Z,96716.94
2023-03-08T11:00:21.111Z,96717.97
2023-03-08T11:03:25.467Z,96708.97
2023-03-08T11:06:28.229Z,96712.28
2023-03-08T11:09:33.042Z,96704.69
2023-03-08T11:12:35.753Z,96708.75
2023-03-08T11:15:40.401Z,96705.28
2023-03-08T11:19:01.333Z,96707.47
2023-03-08T11:22:22.641Z,96703.06
2023-03-08T11:25:47.141Z,96685.38
2023-03-08T11:29:36.812Z,96680.03
2023-03-08T11:32:59.125Z,96673.78
2023-03-08T11:36:17.059Z,96665.63
2023-03-08T11:39:37.965Z,96655.38
2023-03-08T11:42:51.939Z,96650.25
2023-03-08T11:46:17.756Z,96648.75
2023-03-08T11:49:29.460Z,96636.38
2023-03-08T11:52:47.202Z,96625.84
2023-03-08T11:56:05.164Z,96617.13
2023-03-08T11:59:20.324Z,96610.84
2023-03-08T12:02:31.378Z,96596.81
2023-03-08T12:05:36.368Z,96596.25
2023-03-08T12:08:54.518Z,96591.38
2023-03-08T12:12:21.260Z,96580.13
2023-03-08T12:15:51.422Z,96567.53
2023-03-08T12:19:15.802Z,96564.53
2023-03-08T12:22:39.283Z,96562.09
2023-03-08T12:25:43.623Z,96557.03
2023-03-08T12:28:54.286Z,96555.94
2023-03-08T12:31:57.409Z,96554.41
2023-03-08T12:35:21.912Z,96555.22
2023-03-08T12:38:28.800Z,96533.34
2023-03-08T12:41:32.665Z,96531.25
2023-03-08T12:44:35.289Z,96529.84
2023-03-08T12:47:38.059Z,96521.31
2023-03-08T12:50:43.420Z,96526.38
2023-03-08T12:53:51.965Z,96521.84
2023-03-08T12:56:55.233Z,96514.69
2023-03-08T13:00:06.947Z,96514.66
2023-03-08T13:03:12.566Z,96517.53
2023-03-08T13:06:57.009Z,96506.78
2023-03-08T13:10:32.416Z,96513.63
2023-03-08T13:13:50.388Z,96509.41
2023-03-08T13:16:53.276Z,96502.50
2023-03-08T13:19:58.244Z,96494.13
2023-03-08T13:23:11.815Z,96490.88
2023-03-08T13:26:37.667Z,96507.31
2023-03-08T13:29:50.818Z,96512.16
2023-03-08T13:32:54.088Z,96503.88
2023-03-08T13:36:06.949Z,96500.03
2023-03-08T13:39:30.522Z,96495.16
2023-03-08T13:42:33.369Z,96484.47
2023-03-08T13:45:36.584Z,96483.09
2023-03-08T13:48:39.697Z,96472.97
2023-03-08T13:51:43.680Z,96470.59
2023-03-08T13:54:55.023Z,96470.47
2023-03-08T13:57:57.772Z,96467.41
2023-03-08T14:01:05.144Z,96464.53
2023-03-08T14:04:14.066Z,96465.03
2023-03-08T14:07:25.569Z,96471.59
2023-03-08T14:10:47.393Z,96476.34
2023-03-08T14:13:53.305Z,96467.81
2023-03-08T14:16:56.158Z,96467.19
2023-03-08T14:20:07.144Z,96462.50
2023-03-08T14:23:23.634Z,96468.44
2023-03-08T14:26:36.845Z,96478.00
2023-03-08T14:29:39.599Z,96476.56
2023-03-08T14:32:57.063Z,96478.00
2023-03-08T14:36:00.489Z,96479.69
2023-03-08T14:39:04.000Z,96486.03
2023-03-08T14:42:16.171Z,96478.00
2023-03-08T14:45:37.304Z,96467.72
2023-03-08T14:48:40.174Z,96447.16
2023-03-08T14:51:43.603Z,96450.47
2023-03-08T14:54:46.418Z,96443.41
2023-03-08T14:57:50.851Z,96438.50
2023-03-08T15:00:55.653Z,96427.94
2023-03-08T15:03:58.913Z,96431.44
2023-03-08T15:07:01.734Z,96430.25
2023-03-08T15:10:06.792Z,96416.09
2023-03-08T15:13:16.158Z,96406.72
2023-03-08T15:16:19.128Z,96400.69
2023-03-08T15:19:22.180Z,96408.25
2023-03-08T15:22:25.291Z,96398.28
2023-03-08T15:25:34.801Z,96381.03
2023-03-08T15:28:37.529Z,96374.44
2023-03-08T15:31:40.412Z,96364.44
2023-03-08T15:34:43.219Z,96369.09
2023-03-08T15:37:46.839Z,96366.69
2023-03-08T15:40:49.819Z,96355.25
2023-03-08T15:43:54.886Z,96349.66
2023-03-08T15:46:57.583Z,96357.94
2023-03-08T15:50:02.127Z,96352.06
2023-03-08T15:53:05.080Z,96338.19
2023-03-08T15:56:08.133Z,96354.50
2023-03-08T15:59:11.004Z,96341.69
2023-03-08T16:02:16.043Z,96336.00
2023-03-08T16:05:20.232Z,96345.28
2023-03-08T16:08:26.293Z,96340.34
2023-03-08T16:11:29.238Z,96335.81
2023-03-08T16:14:31.876Z,96338.88
2023-03-08T16:17:34.806Z,96347.19
2023-03-08T16:20:40.175Z,96343.31
2023-03-08T16:23:43.392Z,96327.72
2023-03-08T16:26:46.181Z,96320.78
2023-03-08T16:29:52.917Z,96319.44
2023-03-08T16:32:55.688Z,96313.97
2023-03-08T16:36:01.310Z,96314.31
2023-03-08T16:39:07.955Z,96314.53
2023-03-08T16:42:13.081Z,96310.78
2023-03-08T16:45:16.947Z,96310.44
2023-03-08T16:48:19.933Z,96311.13
2023-03-08T16:51:25.031Z,96306.72
2023-03-08T16:54:27.802Z,96309.88
2023-03-08T16:57:30.822Z,96314.75
2023-03-08T17:00:34.304Z,96316.25
2023-03-08T17:03:38.561Z,96322.63
2023-03-08T17:06:43.811Z,96331.56
2023-03-08T17:09:46.758Z,96336.78
2023-03-08T17:12:49.741Z,96343.63
2023-03-08T17:15:52.575Z,96332.38
2023-03-08T17:18:56.484Z,96338.06
2023-03-08T17:21:59.493Z,96347.25
2023-03-08T17:25:02.839Z,96336.66
2023-03-08T17:28:06.364Z,96341.81
2023-03-08T17:31:11.886Z,96345.44
2023-03-08T17:34:15.199Z,96335.16
2023-03-08T17:37:19.382Z,96332.38
2023-03-08T17:40:22.943Z,96338.16
2023-03-08T17:43:26.927Z,96339.91
2023-03-08T17:46:30.852Z,96345.97
2023-03-08T17:49:35.159Z,96352.97
2023-03-08T17:52:39.200Z,96343.34
2023-03-08T17:55:45.804Z,96340.97
2023-03-08T17:58:50.273Z,96336.66
2023-03-08T18:01:54.053Z,96334.56
2023-03-08T18:04:56.978Z,96339.03
2023-03-08T18:07:59.961Z,96323.09
2023-03-08T18:11:03.226Z,96326.69
2023-03-08T18:14:07.633Z,96335.56
2023-03-08T18:17:11.333Z,96335.41
2023-03-08T18:20:15.079Z,96328.63
2023-03-08T18:23:18.306Z,96327.88
2023-03-08T18:26:21.223Z,96322.69
2023-03-08T18:29:24.701Z,96309.34
2023-03-08T18:32:29.100Z,96307.56
2023-03-08T18:35:32.566Z,96305.75
2023-03-08T18:38:36.053Z,96303.78
2023-03-08T18:41:39.923Z,96303.78
2023-03-08T18:44:43.323Z,96290.06
2023-03-08T18:47:50.127Z,96292.16
2023-03-08T18:50:54.868Z,96297.50
2023-03-08T18:53:59.062Z,96289.88
2023-03-08T18:57:02.339Z,96291.34
2023-03-08T19:00:09.870Z,96289.53
2023-03-08T19:03:13.844Z,96295.38
2023-03-08T19:06:17.308Z,96285.47
2023-03-08T19:09:22.772Z,96283.66
2023-03-08T19:12:26.018Z,96274.69
2023-03-08T19:15:38.295Z,96272.03
2023-03-08T19:18:41.737Z,96267.53
2023-03-08T19:21:49.197Z,96260.66
2023-03-08T19:24:52.833Z,96268.81
2023-03-08T19:27:56.122Z,96273.41
2023-03-08T19:30:59.082Z,96274.09
2023-03-08T19:34:03.129Z,96274.75
2023-03-08T19:37:07.037Z,96274.88
2023-03-08T19:40:10.666Z,96261.72
2023-03-08T19:43:13.450Z,96263.03
2023-03-08T19:46:18.218Z,96266.81
2023-03-08T19:49:23.420Z,96269.25
2023-03-08T19:52:26.362Z,96269.91
2023-03-08T19:55:29.406Z,96258.50
2023-03-08T19:58:32.188Z,96263.88
2023-03-08T20:01:35.406Z,96260.44
2023-03-08T20:04:38.360Z,96258.66
2023-03-08T20:07:41.321Z,96255.56
2023-03-08T20:10:44.086Z,96252.94
2023-03-08T20:13:47.365Z,96252.81
2023-03-08T20:16:51.644Z,96251.81
2023-03-08T20:19:55.299Z,96247.94
2023-03-08T20:22:58.352Z,96248.25
2023-03-08T20:26:01.620Z,96255.09
2023-03-08T20:29:05.779Z,96255.28
2023-03-08T20:32:08.689Z,96253.34
2023-03-08T20:35:15.283Z,96244.03
2023-03-08T20:38:18.115Z,96243.84
2023-03-08T20:41:22.945Z,96235.22
2023-03-08T20:44:26.063Z,96241.09
2023-03-08T20:47:28.843Z,96241.78
2023-03-08T20:50:31.610Z,96241.97
2023-03-08T20:53:35.855Z,96241.25
2023-03-08T20:56:38.903Z,96243.88
2023-03-08T20:59:42.125Z,96231.66
2023-03-08T21:02:45.760Z,96243.38
2023-03-08T21:05:48.857Z,96240.31
2023-03-08T21:08:51.811Z,96242.44
2023-03-08T21:11:54.348Z,96238.34
2023-03-08T21:14:59.915Z,96243.25
2023-03-08T21:18:03.216Z,96235.56
2023-03-08T21:21:06.305Z,96243.56
2023-03-08T21:24:15.062Z,96245.53
2023-03-08T21:27:18.228Z,96240.63
2023-03-08T21:30:21.860Z,96253.66
2023-03-08T21:33:24.451Z,96250.09
2023-03-08T21:36:27.216Z,96253.22
2023-03-08T21:39:30.294Z,96250.09
2023-03-08T21:42:33.835Z,96239.69
2023-03-08T21:45:41.794Z,96233.50
2023-03-08T21:48:44.825Z,96217.84
2023-03-08T21:51:48.160Z,96230.06
2023-03-08T21:54:50.974Z,96233.50
2023-03-08T21:57:53.721Z,96221.28
2023-03-08T22:00:56.540Z,96230.72
2023-03-08T22:04:00.901Z,96219.34
2023-03-08T22:07:03.797Z,96229.44
2023-03-08T22:10:07.435Z,96231.91
2023-03-08T22:13:10.138Z,96225.56
2023-03-08T22:16:12.882Z,96221.47
2023-03-08T22:19:15.595Z,96223.09
2023-03-08T22:22:18.821Z,96233.84
2023-03-08T22:25:21.591Z,96240.19
2023-03-08T22:28:24.334Z,96232.22
2023-03-08T22:31:28.727Z,96232.03
2023-03-08T22:34:31.843Z,96244.41
2023-03-08T22:37:34.879Z,96248.50
2023-03-08T22:40:41.071Z,96257.31
2023-03-08T22:43:44.769Z,96254.03
2023-03-08T22:46:48.301Z,96233.47
2023-03-08T22:49:51.545Z,96249.31
2023-03-08T22:52:54.464Z,96241.34
2023-03-08T22:55:57.230Z,96249.16
2023-03-08T22:59:01.367Z,96240.00
2023-03-08T23:02:06.157Z,96247.53
2023-03-08T23:05:12.474Z,96250.94
2023-03-08T23:08:15.064Z,96255.34
2023-03-08T23:11:17.978Z,96240.69
2023-03-08T23:14:20.623Z,96235.47
2023-03-08T23:17:23.189Z,96245.22
2023-03-08T23:20:26.032Z,96229.91
2023-03-08T23:23:28.601Z,96214.63
2023-03-08T23:26:32.919Z,96223.75
2023-03-08T23:29:36.267Z,96224.91
2023-03-08T23:32:38.877Z,96223.09
2023-03-08T23:35:41.690Z,96225.22
2023-03-08T23:38:44.625Z,96217.88
2023-03-08T23:41:47.150Z,96225.03
2023-03-08T23:44:49.776Z,96196.09
2023-03-08T23:47:52.297Z,96197.38
2023-03-08T23:50:54.856Z,96193.78
2023-03-08T23:53:59.836Z,96193.13
2023-03-08T23:57:02.410Z,96198.31
